MSC India — CQIM9 — position and weather

sailwx.info

Track history (hours):
 
Tides and Currents Weather Stations Pressure Air Temp Water Temp Dewpoint Dewpoint Depression Visibility Wind Speed Wind Dir Waves Ship Positions

MSC India

Last reported at 2017-Dec-16 09:59 UTC. Time now 2017-Dec-16 15:07 UTC.
Position N 51°29' E 000°54'.

Length 278 m; draft 9.1 m.

Type: Ship (hazmat cat A). MMSI: 255806005.

Date/timePositionNaut miles runAvg speedWind from/ knotsBaromVisibWave heightAir tempDewpointWater temp
2017-Dec-16 09:59N 51°29' E 000°54'1517.5
2017-Dec-16 09:07N 51°35' E 001°16'218.6
2017-Dec-16 09:01N 51°36' E 001°18'918.4
2017-Dec-16 08:30N 51°43' E 001°28'918.6
2017-Dec-16 08:00N 51°50' E 001°38'4 7.4
2017-Dec-16 07:31N 51°53' E 001°42'1 2.0
2017-Dec-16 07:00N 51°53' E 001°40'0 0.0
2017-Dec-16 06:30N 51°53' E 001°40'0 0.0
2017-Dec-16 06:00N 51°53' E 001°40'0 0.0
2017-Dec-16 05:30N 51°53' E 001°40'0 0.1
2017-Dec-16 05:00N 51°53' E 001°40'0 0.0
2017-Dec-16 04:30N 51°53' E 001°40'0 0.0
2017-Dec-16 04:00N 51°53' E 001°40'0 0.1
2017-Dec-16 03:30N 51°53' E 001°41'0 0.1
2017-Dec-16 03:00N 51°53' E 001°41'0 0.1
2017-Dec-16 02:30N 51°53' E 001°41'0 0.1
2017-Dec-16 02:00N 51°53' E 001°41'0 0.0
2017-Dec-16 01:30N 51°53' E 001°41'0 0.0
2017-Dec-16 01:00N 51°53' E 001°41'0 0.1
2017-Dec-16 00:30N 51°53' E 001°41'0 0.0
2017-Dec-16 00:00N 51°53' E 001°41'0 0.1
2017-Dec-15 23:30N 51°53' E 001°41'0 0.1
2017-Dec-15 23:00N 51°53' E 001°40'0 0.1
2017-Dec-15 22:30N 51°53' E 001°40'0 0.0
2017-Dec-15 22:00N 51°53' E 001°40'0 0.0
2017-Dec-15 21:30N 51°53' E 001°40'0 0.1
2017-Dec-15 20:57N 51°53' E 001°40'0 0.1
2017-Dec-15 20:30N 51°53' E 001°40'0 0.0
2017-Dec-15 20:00N 51°53' E 001°40'0 0.0
2017-Dec-15 19:30N 51°53' E 001°40'0 0.0
2017-Dec-15 19:00N 51°53' E 001°40'0 0.0
2017-Dec-15 18:30N 51°53' E 001°40'0 0.0
2017-Dec-15 18:00N 51°53' E 001°40'0 0.0
2017-Dec-15 17:30N 51°53' E 001°40'0 0.0
2017-Dec-15 17:00N 51°53' E 001°40'0 0.0
2017-Dec-15 16:30N 51°53' E 001°40'0 0.1
2017-Dec-15 16:00N 51°53' E 001°40'0 0.1
2017-Dec-15 15:30N 51°53' E 001°40'0 0.1
2017-Dec-15 15:00N 51°53' E 001°40'0 0.2
2017-Dec-15 14:30N 51°53' E 001°40'0 0.2
2017-Dec-15 14:00N 51°53' E 001°41'0 0.2
2017-Dec-15 13:30N 51°53' E 001°41'0 0.1
2017-Dec-15 13:00N 51°54' E 001°41'0 0.0
2017-Dec-15 12:30N 51°54' E 001°41'0 0.1
2017-Dec-15 12:00N 51°53' E 001°41'0 0.1
2017-Dec-15 11:30N 51°53' E 001°41'0 0.1
2017-Dec-15 11:00N 51°53' E 001°41'0 0.1
2017-Dec-15 10:30N 51°53' E 001°41'0 0.0
2017-Dec-15 10:00N 51°53' E 001°41'0 0.1
2017-Dec-15 09:30N 51°53' E 001°41'0 0.1
2017-Dec-15 09:00N 51°53' E 001°40'0 0.1
2017-Dec-15 08:30N 51°53' E 001°40'0 0.1
2017-Dec-15 08:00N 51°53' E 001°40'0 0.0
2017-Dec-15 07:30N 51°53' E 001°40'0 0.8
2017-Dec-15 07:01N 51°54' E 001°41'3 6.9
2017-Dec-15 06:31N 51°52' E 001°46'510.4
2017-Dec-15 06:00N 51°47' E 001°49'811.7
2017-Dec-15 05:22N 51°40' E 001°49'412.0
2017-Dec-15 05:01N 51°35' E 001°50'611.6
2017-Dec-15 04:31N 51°30' E 001°54'612.2
2017-Dec-15 04:01N 51°26' E 002°02'14 9.3
2017-Dec-15 02:30N 51°12' E 001°59'2013.6
2017-Dec-15 01:00N 50°60' E 001°33'713.9
2017-Dec-15 00:30N 50°54' E 001°27'8413.4
2017-Dec-14 18:13N 50°12' W 000°28'9414.1
2017-Dec-14 11:31N 49°49' W 002°50'211.9
2017-Dec-14 11:23N 49°48' W 002°52'1011.3
2017-Dec-14 10:32N 49°43' W 003°05'011.3
2017-Dec-14 10:30N 49°43' W 003°05'6411.7
2017-Dec-14 05:03N 49°10' W 004°29'112.1
2017-Dec-14 05:01N 49°09' W 004°29'612.1
2017-Dec-14 04:29N 49°06' W 004°38'612.4
2017-Dec-14 04:00N 49°03' W 004°46'612.8
2017-Dec-14 03:30N 48°60' W 004°54'612.7
2017-Dec-14 03:00N 48°57' W 005°02'612.7
2017-Dec-14 02:30N 48°54' W 005°11'612.8
2017-Dec-14 02:00N 48°51' W 005°19'612.9
2017-Dec-14 01:30N 48°48' W 005°28'916.7
2017-Dec-14 00:59N 48°42' W 005°38'917.2
2017-Dec-14 00:27N 48°33' W 005°43'716.3
2017-Dec-14 00:00N 48°26' W 005°46'815.9
2017-Dec-13 23:30N 48°19' W 005°50'814.7
2017-Dec-13 22:57N 48°11' W 005°52'613.4
2017-Dec-13 22:29N 48°04' W 005°53'54618.2
2017-Dec-12 16:34N 39°27' W 009°51'116.8
2017-Dec-12 16:30N 39°25' W 009°51'817.2
2017-Dec-12 16:00N 39°17' W 009°51'816.9
2017-Dec-12 15:31N 39°09' W 009°51'917.0
2017-Dec-12 15:00N 39°00' W 009°52'816.4
2017-Dec-12 14:30N 38°52' W 009°52'816.9
2017-Dec-12 14:00N 38°43' W 009°52'816.9
2017-Dec-12 13:30N 38°35' W 009°49'817.0
2017-Dec-12 13:00N 38°27' W 009°47'816.6
2017-Dec-12 12:30N 38°19' W 009°45'816.5
2017-Dec-12 12:00N 38°10' W 009°43'816.8
2017-Dec-12 11:30N 38°03' W 009°41'917.0
2017-Dec-12 10:58N 37°54' W 009°37'817.2
2017-Dec-12 10:30N 37°46' W 009°35'7515.1
2017-Dec-12 05:32N 36°39' W 008°51'13117.1
2017-Dec-11 21:51N 35°58' W 006°17'617.3
2017-Dec-11 21:30N 35°58' W 006°09'918.1
2017-Dec-11 21:00N 35°57' W 005°58'918.1
2017-Dec-11 20:30N 35°57' W 005°47'918.4
2017-Dec-11 20:00N 35°58' W 005°36'917.3
2017-Dec-11 19:30N 36°01' W 005°26'917.4
2017-Dec-11 18:59N 36°02' W 005°15'21517.4
2017-Dec-11 06:36N 37°16' W 001°03'115.2
2017-Dec-11 06:30N 37°17' W 001°01'815.6
2017-Dec-11 06:00N 37°21' W 000°53'815.3
2017-Dec-11 05:30N 37°26' W 000°46'815.5
2017-Dec-11 04:59N 37°31' W 000°38'715.7
2017-Dec-11 04:30N 37°37' W 000°32'816.4
2017-Dec-11 04:00N 37°44' W 000°26'816.6
2017-Dec-11 03:30N 37°50' W 000°20'917.0
2017-Dec-11 02:59N 37°58' W 000°14'2017.4
2017-Dec-11 01:51N 38°15' W 000°00'618.2
2017-Dec-11 01:30N 38°20' E 000°04'120 3.1
2017-Dec-09 11:12N 39°03' E 002°28'419.6
2017-Dec-09 11:00N 39°02' E 002°32'28414.3
2017-Dec-08 15:11N 38°36' E 008°36'314.3
2017-Dec-08 14:56N 38°36' E 008°40'20013.8
2017-Dec-08 00:29N 38°28' E 012°56'814.1
2017-Dec-07 23:57N 38°28' E 013°06'613.9
2017-Dec-07 23:30N 38°27' E 013°14'713.8
2017-Dec-07 23:00N 38°27' E 013°22'713.9
2017-Dec-07 22:31N 38°26' E 013°31'714.0
2017-Dec-07 22:00N 38°25' E 013°40'714.0
2017-Dec-07 21:30N 38°24' E 013°49'714.0
2017-Dec-07 21:00N 38°24' E 013°58'714.0
2017-Dec-07 20:30N 38°23' E 014°07'714.1
2017-Dec-07 20:00N 38°23' E 014°16'1913.9
2017-Dec-07 18:40N 38°21' E 014°39'213.9
2017-Dec-07 18:30N 38°20' E 014°42'1115.1
2017-Dec-07 17:46N 38°19' E 014°56'819.5
2017-Dec-07 17:22N 38°20' E 015°06'719.7
2017-Dec-07 17:00N 38°21' E 015°15'1019.8
2017-Dec-07 16:30N 38°23' E 015°27'1020.0
2017-Dec-07 15:59N 38°25' E 015°40'  
Track history (hours):
 
Tides and Currents Weather Stations Pressure Air Temp Water Temp Dewpoint Dewpoint Depression Visibility Wind Speed Wind Dir Waves Ship Positions

MSC India

Last reported at 2017-Dec-16 09:59 UTC. Time now 2017-Dec-16 15:07 UTC.
Position N 51°29' E 000°54'.

Length 278 m; draft 9.1 m.

Type: Ship (hazmat cat A). MMSI: 255806005.

Date/timePositionNaut miles runAvg speedWind from/ knotsBaromVisibWave heightAir tempDewpointWater temp
2017-Dec-16 09:59N 51°29' E 000°54'1517.5
2017-Dec-16 09:07N 51°35' E 001°16'218.6
2017-Dec-16 09:01N 51°36' E 001°18'918.4
2017-Dec-16 08:30N 51°43' E 001°28'918.6
2017-Dec-16 08:00N 51°50' E 001°38'4 7.4
2017-Dec-16 07:31N 51°53' E 001°42'1 2.0
2017-Dec-16 07:00N 51°53' E 001°40'0 0.0
2017-Dec-16 06:30N 51°53' E 001°40'0 0.0
2017-Dec-16 06:00N 51°53' E 001°40'0 0.0
2017-Dec-16 05:30N 51°53' E 001°40'0 0.1
2017-Dec-16 05:00N 51°53' E 001°40'0 0.0
2017-Dec-16 04:30N 51°53' E 001°40'0 0.0
2017-Dec-16 04:00N 51°53' E 001°40'0 0.1
2017-Dec-16 03:30N 51°53' E 001°41'0 0.1
2017-Dec-16 03:00N 51°53' E 001°41'0 0.1
2017-Dec-16 02:30N 51°53' E 001°41'0 0.1
2017-Dec-16 02:00N 51°53' E 001°41'0 0.0
2017-Dec-16 01:30N 51°53' E 001°41'0 0.0
2017-Dec-16 01:00N 51°53' E 001°41'0 0.1
2017-Dec-16 00:30N 51°53' E 001°41'0 0.0
2017-Dec-16 00:00N 51°53' E 001°41'0 0.1
2017-Dec-15 23:30N 51°53' E 001°41'0 0.1
2017-Dec-15 23:00N 51°53' E 001°40'0 0.1
2017-Dec-15 22:30N 51°53' E 001°40'0 0.0
2017-Dec-15 22:00N 51°53' E 001°40'0 0.0
2017-Dec-15 21:30N 51°53' E 001°40'0 0.1
2017-Dec-15 20:57N 51°53' E 001°40'0 0.1
2017-Dec-15 20:30N 51°53' E 001°40'0 0.0
2017-Dec-15 20:00N 51°53' E 001°40'0 0.0
2017-Dec-15 19:30N 51°53' E 001°40'0 0.0
2017-Dec-15 19:00N 51°53' E 001°40'0 0.0
2017-Dec-15 18:30N 51°53' E 001°40'0 0.0
2017-Dec-15 18:00N 51°53' E 001°40'0 0.0
2017-Dec-15 17:30N 51°53' E 001°40'0 0.0
2017-Dec-15 17:00N 51°53' E 001°40'0 0.0
2017-Dec-15 16:30N 51°53' E 001°40'0 0.1
2017-Dec-15 16:00N 51°53' E 001°40'0 0.1
2017-Dec-15 15:30N 51°53' E 001°40'0 0.1
2017-Dec-15 15:00N 51°53' E 001°40'0 0.2
2017-Dec-15 14:30N 51°53' E 001°40'0 0.2
2017-Dec-15 14:00N 51°53' E 001°41'0 0.2
2017-Dec-15 13:30N 51°53' E 001°41'0 0.1
2017-Dec-15 13:00N 51°54' E 001°41'0 0.0
2017-Dec-15 12:30N 51°54' E 001°41'0 0.1
2017-Dec-15 12:00N 51°53' E 001°41'0 0.1
2017-Dec-15 11:30N 51°53' E 001°41'0 0.1
2017-Dec-15 11:00N 51°53' E 001°41'0 0.1
2017-Dec-15 10:30N 51°53' E 001°41'0 0.0
2017-Dec-15 10:00N 51°53' E 001°41'0 0.1
2017-Dec-15 09:30N 51°53' E 001°41'0 0.1
2017-Dec-15 09:00N 51°53' E 001°40'0 0.1
2017-Dec-15 08:30N 51°53' E 001°40'0 0.1
2017-Dec-15 08:00N 51°53' E 001°40'0 0.0
2017-Dec-15 07:30N 51°53' E 001°40'0 0.8
2017-Dec-15 07:01N 51°54' E 001°41'3 6.9
2017-Dec-15 06:31N 51°52' E 001°46'510.4
2017-Dec-15 06:00N 51°47' E 001°49'811.7
2017-Dec-15 05:22N 51°40' E 001°49'412.0
2017-Dec-15 05:01N 51°35' E 001°50'611.6
2017-Dec-15 04:31N 51°30' E 001°54'612.2
2017-Dec-15 04:01N 51°26' E 002°02'14 9.3
2017-Dec-15 02:30N 51°12' E 001°59'2013.6
2017-Dec-15 01:00N 50°60' E 001°33'713.9
2017-Dec-15 00:30N 50°54' E 001°27'8413.4
2017-Dec-14 18:13N 50°12' W 000°28'9414.1
2017-Dec-14 11:31N 49°49' W 002°50'211.9
2017-Dec-14 11:23N 49°48' W 002°52'1011.3
2017-Dec-14 10:32N 49°43' W 003°05'011.3
2017-Dec-14 10:30N 49°43' W 003°05'6411.7
2017-Dec-14 05:03N 49°10' W 004°29'112.1
2017-Dec-14 05:01N 49°09' W 004°29'612.1
2017-Dec-14 04:29N 49°06' W 004°38'612.4
2017-Dec-14 04:00N 49°03' W 004°46'612.8
2017-Dec-14 03:30N 48°60' W 004°54'612.7
2017-Dec-14 03:00N 48°57' W 005°02'612.7
2017-Dec-14 02:30N 48°54' W 005°11'612.8
2017-Dec-14 02:00N 48°51' W 005°19'612.9
2017-Dec-14 01:30N 48°48' W 005°28'916.7
2017-Dec-14 00:59N 48°42' W 005°38'917.2
2017-Dec-14 00:27N 48°33' W 005°43'716.3
2017-Dec-14 00:00N 48°26' W 005°46'815.9
2017-Dec-13 23:30N 48°19' W 005°50'814.7
2017-Dec-13 22:57N 48°11' W 005°52'613.4
2017-Dec-13 22:29N 48°04' W 005°53'54618.2
2017-Dec-12 16:34N 39°27' W 009°51'116.8
2017-Dec-12 16:30N 39°25' W 009°51'817.2
2017-Dec-12 16:00N 39°17' W 009°51'816.9
2017-Dec-12 15:31N 39°09' W 009°51'917.0
2017-Dec-12 15:00N 39°00' W 009°52'816.4
2017-Dec-12 14:30N 38°52' W 009°52'816.9
2017-Dec-12 14:00N 38°43' W 009°52'816.9
2017-Dec-12 13:30N 38°35' W 009°49'817.0
2017-Dec-12 13:00N 38°27' W 009°47'816.6
2017-Dec-12 12:30N 38°19' W 009°45'816.5
2017-Dec-12 12:00N 38°10' W 009°43'816.8
2017-Dec-12 11:30N 38°03' W 009°41'917.0
2017-Dec-12 10:58N 37°54' W 009°37'817.2
2017-Dec-12 10:30N 37°46' W 009°35'7515.1
2017-Dec-12 05:32N 36°39' W 008°51'13117.1
2017-Dec-11 21:51N 35°58' W 006°17'617.3
2017-Dec-11 21:30N 35°58' W 006°09'918.1
2017-Dec-11 21:00N 35°57' W 005°58'918.1
2017-Dec-11 20:30N 35°57' W 005°47'918.4
2017-Dec-11 20:00N 35°58' W 005°36'917.3
2017-Dec-11 19:30N 36°01' W 005°26'917.4
2017-Dec-11 18:59N 36°02' W 005°15'21517.4
2017-Dec-11 06:36N 37°16' W 001°03'115.2
2017-Dec-11 06:30N 37°17' W 001°01'815.6
2017-Dec-11 06:00N 37°21' W 000°53'815.3
2017-Dec-11 05:30N 37°26' W 000°46'815.5
2017-Dec-11 04:59N 37°31' W 000°38'715.7
2017-Dec-11 04:30N 37°37' W 000°32'816.4
2017-Dec-11 04:00N 37°44' W 000°26'816.6
2017-Dec-11 03:30N 37°50' W 000°20'917.0
2017-Dec-11 02:59N 37°58' W 000°14'2017.4
2017-Dec-11 01:51N 38°15' W 000°00'618.2
2017-Dec-11 01:30N 38°20' E 000°04'120 3.1
2017-Dec-09 11:12N 39°03' E 002°28'419.6
2017-Dec-09 11:00N 39°02' E 002°32'28414.3
2017-Dec-08 15:11N 38°36' E 008°36'314.3
2017-Dec-08 14:56N 38°36' E 008°40'20013.8
2017-Dec-08 00:29N 38°28' E 012°56'814.1
2017-Dec-07 23:57N 38°28' E 013°06'613.9
2017-Dec-07 23:30N 38°27' E 013°14'713.8
2017-Dec-07 23:00N 38°27' E 013°22'713.9
2017-Dec-07 22:31N 38°26' E 013°31'714.0
2017-Dec-07 22:00N 38°25' E 013°40'714.0
2017-Dec-07 21:30N 38°24' E 013°49'714.0
2017-Dec-07 21:00N 38°24' E 013°58'714.0
2017-Dec-07 20:30N 38°23' E 014°07'714.1
2017-Dec-07 20:00N 38°23' E 014°16'1913.9
2017-Dec-07 18:40N 38°21' E 014°39'213.9
2017-Dec-07 18:30N 38°20' E 014°42'1115.1
2017-Dec-07 17:46N 38°19' E 014°56'819.5
2017-Dec-07 17:22N 38°20' E 015°06'719.7
2017-Dec-07 17:00N 38°21' E 015°15'1019.8
2017-Dec-07 16:30N 38°23' E 015°27'1020.0
2017-Dec-07 15:59N 38°25' E 015°40'  

Dump ship's entire track history